createdAt,value
2022-12-31T00:01:24.865Z,14.97
2022-12-31T00:03:54.839Z,14.94
2022-12-31T00:06:29.597Z,15.15
2022-12-31T00:09:01.023Z,15.15
2022-12-31T00:11:30.739Z,15.23
2022-12-31T00:13:59.505Z,15.21
2022-12-31T00:16:36.769Z,15.21
2022-12-31T00:19:08.540Z,14.67
2022-12-31T00:21:38.255Z,14.79
2022-12-31T00:24:07.069Z,15.05
2022-12-31T00:26:35.764Z,15.11
2022-12-31T00:29:04.928Z,15.11
2022-12-31T00:31:35.400Z,15.05
2022-12-31T00:34:04.137Z,15.06
2022-12-31T00:36:35.560Z,15.22
2022-12-31T00:39:06.338Z,15.18
2022-12-31T00:41:34.323Z,15.11
2022-12-31T00:44:02.362Z,15.10
2022-12-31T00:46:31.698Z,15.13
2022-12-31T00:48:59.506Z,15.08
2022-12-31T00:51:28.021Z,15.24
2022-12-31T00:53:57.437Z,15.28
2022-12-31T00:56:28.662Z,15.34
2022-12-31T00:58:57.087Z,15.23
2022-12-31T01:01:32.398Z,15.38
2022-12-31T01:04:23.444Z,15.38
2022-12-31T01:06:51.083Z,15.38
2022-12-31T01:09:19.696Z,15.46
2022-12-31T01:11:50.591Z,15.40
2022-12-31T01:14:20.463Z,15.55
2022-12-31T01:16:52.187Z,15.55
2022-12-31T01:19:27.213Z,15.61
2022-12-31T01:21:55.998Z,15.57
2022-12-31T01:24:24.019Z,15.54
2022-12-31T01:26:51.711Z,15.40
2022-12-31T01:29:19.582Z,15.42
2022-12-31T01:31:47.438Z,15.33
2022-12-31T01:34:14.963Z,15.31
2022-12-31T01:36:42.598Z,15.13
2022-12-31T01:39:11.300Z,15.15
2022-12-31T01:41:43.249Z,15.21
2022-12-31T01:44:13.954Z,15.06
2022-12-31T01:46:52.440Z,15.15
2022-12-31T01:49:40.122Z,15.08
2022-12-31T01:52:13.834Z,15.12
2022-12-31T01:54:48.724Z,15.07
2022-12-31T01:57:16.969Z,15.05
2022-12-31T01:59:45.308Z,15.06
2022-12-31T02:02:15.158Z,15.05
2022-12-31T02:04:42.966Z,15.03
2022-12-31T02:07:12.662Z,15.03
2022-12-31T02:09:42.143Z,15.07
2022-12-31T02:12:10.745Z,15.08
2022-12-31T02:14:48.605Z,15.13
2022-12-31T02:17:48.731Z,15.15
2022-12-31T02:20:35.406Z,15.21
2022-12-31T02:23:47.526Z,14.95
2022-12-31T02:26:39.794Z,14.91
2022-12-31T02:29:57.399Z,14.95
2022-12-31T02:32:37.072Z,15.17
2022-12-31T02:35:27.343Z,15.22
2022-12-31T02:38:03.327Z,15.18
2022-12-31T02:40:34.231Z,15.41
2022-12-31T02:43:01.920Z,15.28
2022-12-31T02:45:37.951Z,15.38
2022-12-31T02:48:30.719Z,15.31
2022-12-31T02:51:34.048Z,15.63
2022-12-31T02:54:19.398Z,15.70
2022-12-31T02:57:31.795Z,15.67
2022-12-31T03:00:28.664Z,15.75
2022-12-31T03:02:58.800Z,15.76
2022-12-31T03:05:31.114Z,15.74
2022-12-31T03:07:58.665Z,15.83
2022-12-31T03:10:26.256Z,15.92
2022-12-31T03:12:54.954Z,15.79
2022-12-31T03:15:28.044Z,15.94
2022-12-31T03:18:16.762Z,15.87
2022-12-31T03:21:07.779Z,15.92
2022-12-31T03:23:41.587Z,15.81
2022-12-31T03:26:13.196Z,15.88
2022-12-31T03:28:47.787Z,15.93
2022-12-31T03:31:16.257Z,15.82
2022-12-31T03:33:44.228Z,15.82
2022-12-31T03:36:15.008Z,15.79
2022-12-31T03:38:44.182Z,15.86
2022-12-31T03:41:14.000Z,15.85
2022-12-31T03:43:41.571Z,16.03
2022-12-31T03:46:09.818Z,16.08
2022-12-31T03:48:37.445Z,16.23
2022-12-31T03:51:05.845Z,16.06
2022-12-31T03:53:34.810Z,16.30
2022-12-31T03:56:02.383Z,16.45
2022-12-31T03:58:30.049Z,16.32
2022-12-31T04:00:57.691Z,16.07
2022-12-31T04:03:25.544Z,16.32
2022-12-31T04:05:55.600Z,16.44
2022-12-31T04:08:24.089Z,16.41
2022-12-31T04:10:51.823Z,16.37
2022-12-31T04:13:19.732Z,16.21
2022-12-31T04:15:51.924Z,16.41
2022-12-31T04:18:19.838Z,16.10
2022-12-31T04:20:47.558Z,16.49
2022-12-31T04:23:15.258Z,16.37
2022-12-31T04:25:43.092Z,16.12
2022-12-31T04:28:11.891Z,16.47
2022-12-31T04:30:40.090Z,16.26
2022-12-31T04:33:07.709Z,16.17
2022-12-31T04:35:35.289Z,16.18
2022-12-31T04:38:02.914Z,16.15
2022-12-31T04:40:30.788Z,16.25
2022-12-31T04:42:58.677Z,16.13
2022-12-31T04:45:26.327Z,16.02
2022-12-31T04:47:53.931Z,16.29
2022-12-31T04:50:21.687Z,16.32
2022-12-31T04:52:49.232Z,16.38
2022-12-31T04:55:17.217Z,16.31
2022-12-31T04:57:45.855Z,16.45
2022-12-31T05:00:13.885Z,16.35
2022-12-31T05:02:41.596Z,16.33
2022-12-31T05:05:09.643Z,16.37
2022-12-31T05:07:37.290Z,16.63
2022-12-31T05:10:05.886Z,16.63
2022-12-31T05:12:33.566Z,16.68
2022-12-31T05:15:01.180Z,16.66
2022-12-31T05:17:28.747Z,16.67
2022-12-31T05:19:56.437Z,16.54
2022-12-31T05:22:29.938Z,16.43
2022-12-31T05:25:01.239Z,16.43
2022-12-31T05:27:33.026Z,16.51
2022-12-31T05:30:00.958Z,16.38
2022-12-31T05:32:28.610Z,16.26
2022-12-31T05:34:57.397Z,16.36
2022-12-31T05:37:25.874Z,16.26
2022-12-31T05:39:53.566Z,16.34
2022-12-31T05:42:22.207Z,16.31
2022-12-31T05:44:50.092Z,16.31
2022-12-31T05:47:17.853Z,16.28
2022-12-31T05:49:45.488Z,16.26
2022-12-31T05:52:13.186Z,16.35
2022-12-31T05:54:40.843Z,16.23
2022-12-31T05:57:08.652Z,16.41
2022-12-31T05:59:36.462Z,16.28
2022-12-31T06:02:04.483Z,16.38
2022-12-31T06:04:32.154Z,16.21
2022-12-31T06:06:59.843Z,16.14
2022-12-31T06:09:27.453Z,16.32
2022-12-31T06:11:55.308Z,16.26
2022-12-31T06:14:23.009Z,16.21
2022-12-31T06:16:50.602Z,16.36
2022-12-31T06:19:18.118Z,16.48
2022-12-31T06:21:45.715Z,16.53
2022-12-31T06:24:13.346Z,16.58
2022-12-31T06:26:40.890Z,16.75
2022-12-31T06:29:08.916Z,16.56
2022-12-31T06:31:37.313Z,16.55
2022-12-31T06:34:04.999Z,16.52
2022-12-31T06:36:32.619Z,16.41
2022-12-31T06:39:01.658Z,16.42
2022-12-31T06:41:29.251Z,16.47
2022-12-31T06:43:56.970Z,16.64
2022-12-31T06:46:26.890Z,16.70
2022-12-31T06:48:54.553Z,16.77
2022-12-31T06:51:22.801Z,16.69
2022-12-31T06:53:51.920Z,16.67
2022-12-31T06:56:33.992Z,16.75
2022-12-31T06:59:06.555Z,16.66
2022-12-31T07:01:37.414Z,16.56
2022-12-31T07:04:56.226Z,16.58
2022-12-31T07:07:56.190Z,16.65
2022-12-31T07:10:45.238Z,16.54
2022-12-31T07:13:30.131Z,16.60
2022-12-31T07:16:39.187Z,16.49
2022-12-31T07:19:55.445Z,16.53
2022-12-31T07:22:25.647Z,16.40
2022-12-31T07:24:53.684Z,16.58
2022-12-31T07:27:52.234Z,16.33
2022-12-31T07:30:34.068Z,16.41
2022-12-31T07:33:17.638Z,16.56
2022-12-31T07:36:10.482Z,16.78
2022-12-31T07:39:06.303Z,16.58
2022-12-31T07:41:46.218Z,16.67
2022-12-31T07:44:38.937Z,16.65
2022-12-31T07:47:21.408Z,16.64
2022-12-31T07:49:49.843Z,16.66
2022-12-31T07:52:19.698Z,16.70
2022-12-31T07:54:47.690Z,16.69
2022-12-31T07:57:17.709Z,16.77
2022-12-31T07:59:56.512Z,16.71
2022-12-31T08:02:57.422Z,16.87
2022-12-31T08:05:44.226Z,16.95
2022-12-31T08:08:50.350Z,16.95
2022-12-31T08:11:32.642Z,17.02
2022-12-31T08:14:02.740Z,16.85
2022-12-31T08:16:35.439Z,16.97
2022-12-31T08:19:03.636Z,17.20
2022-12-31T08:22:07.012Z,17.24
2022-12-31T08:25:12.210Z,17.17
2022-12-31T08:27:48.617Z,17.42
2022-12-31T08:30:19.708Z,17.14
2022-12-31T08:32:53.245Z,17.20
2022-12-31T08:35:23.704Z,17.30
2022-12-31T08:38:03.716Z,17.37
2022-12-31T08:40:58.159Z,17.41
2022-12-31T08:43:46.068Z,17.33
2022-12-31T08:46:27.664Z,17.58
2022-12-31T08:48:55.599Z,17.69
2022-12-31T08:51:26.300Z,17.79
2022-12-31T08:53:55.514Z,17.67
2022-12-31T08:56:50.426Z,17.57
2022-12-31T08:59:46.001Z,17.40
2022-12-31T09:03:04.289Z,17.50
2022-12-31T09:06:12.372Z,17.72
2022-12-31T09:09:03.840Z,17.61
2022-12-31T09:11:59.207Z,17.59
2022-12-31T09:14:42.932Z,17.63
2022-12-31T09:17:47.100Z,17.82
2022-12-31T09:20:42.985Z,17.63
2022-12-31T09:23:13.259Z,17.66
2022-12-31T09:26:10.331Z,17.96
2022-12-31T09:28:55.907Z,17.72
2022-12-31T09:31:35.185Z,17.57
2022-12-31T09:34:21.744Z,17.72
2022-12-31T09:36:57.351Z,17.70
2022-12-31T09:39:42.394Z,17.93
2022-12-31T09:42:50.763Z,18.45
2022-12-31T09:45:42.617Z,18.65
2022-12-31T09:48:50.815Z,18.56
2022-12-31T09:51:45.128Z,18.81
2022-12-31T09:54:21.686Z,18.58
2022-12-31T09:57:19.935Z,18.69
2022-12-31T10:00:21.685Z,18.52
2022-12-31T10:03:21.889Z,18.51
2022-12-31T10:06:09.753Z,18.93
2022-12-31T10:08:56.706Z,19.15
2022-12-31T10:12:14.478Z,18.96
2022-12-31T10:15:30.236Z,18.94
2022-12-31T10:18:35.253Z,19.24
2022-12-31T10:21:24.571Z,19.24
2022-12-31T10:24:41.942Z,19.31
2022-12-31T10:27:40.201Z,19.36
2022-12-31T10:30:22.120Z,19.42
2022-12-31T10:33:34.962Z,19.40
2022-12-31T10:36:15.784Z,19.39
2022-12-31T10:38:55.610Z,19.61
2022-12-31T10:42:02.431Z,19.27
2022-12-31T10:45:14.384Z,19.67
2022-12-31T10:48:15.053Z,19.74
2022-12-31T10:50:59.611Z,19.61
2022-12-31T10:53:54.534Z,19.47
2022-12-31T10:56:40.331Z,19.71
2022-12-31T10:59:47.976Z,19.54
2022-12-31T11:02:40.366Z,19.90
2022-12-31T11:05:19.911Z,19.86
2022-12-31T11:07:57.216Z,19.97
2022-12-31T11:10:57.509Z,19.81
2022-12-31T11:13:54.231Z,20.00
2022-12-31T11:16:38.439Z,20.07
2022-12-31T11:19:32.963Z,20.09
2022-12-31T11:22:13.193Z,20.25
2022-12-31T11:25:02.064Z,20.42
2022-12-31T11:27:59.958Z,20.51
2022-12-31T11:31:13.256Z,20.70
2022-12-31T11:33:59.783Z,20.63
2022-12-31T11:37:18.359Z,20.83
2022-12-31T11:40:28.144Z,20.90
2022-12-31T11:43:20.059Z,20.98
2022-12-31T11:46:03.012Z,20.66
2022-12-31T11:48:43.239Z,20.84
2022-12-31T11:51:25.920Z,20.92
2022-12-31T11:54:40.332Z,20.95
2022-12-31T11:57:37.387Z,21.24
2022-12-31T12:00:18.990Z,21.23
2022-12-31T12:02:59.941Z,21.36
2022-12-31T12:05:28.819Z,21.83
2022-12-31T12:07:56.703Z,22.13
2022-12-31T12:10:53.526Z,22.02
2022-12-31T12:13:26.673Z,22.16
2022-12-31T12:16:06.609Z,22.32
2022-12-31T12:18:49.614Z,22.35
2022-12-31T12:21:21.410Z,22.81
2022-12-31T12:24:06.429Z,22.66
2022-12-31T12:26:44.491Z,22.52
2022-12-31T12:29:36.355Z,22.88
2022-12-31T12:32:16.508Z,23.31
2022-12-31T12:34:49.440Z,23.04
2022-12-31T12:37:35.416Z,22.94
2022-12-31T12:40:18.559Z,23.06
2022-12-31T12:42:51.921Z,23.07
2022-12-31T12:45:25.211Z,23.29
2022-12-31T12:48:02.734Z,23.49
2022-12-31T12:50:44.061Z,23.12
2022-12-31T12:53:31.599Z,23.45
2022-12-31T12:56:19.371Z,24.13
2022-12-31T12:59:21.700Z,24.34
2022-12-31T13:02:39.669Z,24.24
2022-12-31T13:05:56.944Z,24.02
2022-12-31T13:08:52.304Z,23.26
2022-12-31T13:11:44.694Z,22.82
2022-12-31T13:14:50.972Z,22.58
2022-12-31T13:18:01.524Z,22.81
2022-12-31T13:23:42.363Z,22.40
2022-12-31T13:26:31.786Z,22.56
2022-12-31T13:29:01.466Z,22.58
2022-12-31T13:31:39.252Z,22.35
2022-12-31T13:34:19.073Z,22.24
2022-12-31T13:36:51.168Z,22.52
2022-12-31T13:39:29.763Z,22.61
2022-12-31T13:42:23.654Z,22.58
2022-12-31T13:45:17.282Z,22.47
2022-12-31T13:47:52.754Z,22.30
2022-12-31T13:50:29.224Z,22.30
2022-12-31T13:53:09.758Z,22.16
2022-12-31T13:56:13.549Z,22.23
2022-12-31T13:59:03.607Z,22.09
2022-12-31T14:01:43.702Z,21.75
2022-12-31T14:04:42.659Z,21.71
2022-12-31T14:07:14.961Z,21.54
2022-12-31T14:09:42.759Z,21.17
2022-12-31T14:12:21.517Z,21.19
2022-12-31T14:15:13.936Z,21.25
2022-12-31T14:18:18.595Z,21.19
2022-12-31T14:20:53.460Z,20.66
2022-12-31T14:23:44.469Z,20.12
2022-12-31T14:26:51.126Z,20.19
2022-12-31T14:29:53.759Z,20.01
2022-12-31T14:32:54.631Z,19.96
2022-12-31T14:36:08.294Z,19.81
2022-12-31T14:39:00.056Z,19.83
2022-12-31T14:42:12.960Z,19.70
2022-12-31T14:45:00.835Z,19.70
2022-12-31T14:47:47.596Z,19.48
2022-12-31T14:50:25.591Z,19.63
2022-12-31T14:53:08.099Z,19.80
2022-12-31T14:55:40.877Z,19.72
2022-12-31T14:58:30.010Z,19.72
2022-12-31T15:01:03.266Z,19.58
2022-12-31T15:03:45.468Z,19.50
2022-12-31T15:06:41.276Z,19.30
2022-12-31T15:09:50.106Z,19.50
2022-12-31T15:12:39.235Z,19.66
2022-12-31T15:15:37.541Z,19.57
2022-12-31T15:18:15.478Z,19.69
2022-12-31T15:20:48.745Z,19.08
2022-12-31T15:23:38.641Z,19.13
2022-12-31T15:26:21.024Z,18.65
2022-12-31T15:29:02.918Z,18.78
2022-12-31T15:31:33.109Z,18.71
2022-12-31T15:34:07.623Z,18.55
2022-12-31T15:36:53.139Z,18.43
2022-12-31T15:39:40.462Z,18.46
2022-12-31T15:42:42.416Z,18.30
2022-12-31T15:45:40.386Z,18.14
2022-12-31T15:48:18.139Z,18.47
2022-12-31T15:50:52.855Z,17.98
2022-12-31T15:53:41.821Z,17.79
2022-12-31T15:56:19.703Z,18.15
2022-12-31T15:58:51.627Z,18.17
2022-12-31T16:01:30.872Z,17.93
2022-12-31T16:04:01.968Z,18.18
2022-12-31T16:06:33.137Z,17.75
2022-12-31T16:09:01.335Z,17.87
2022-12-31T16:11:30.456Z,17.87
2022-12-31T16:13:59.394Z,17.77
2022-12-31T16:16:35.344Z,17.69
2022-12-31T16:19:03.175Z,17.84
2022-12-31T16:21:38.580Z,17.70
2022-12-31T16:25:02.908Z,18.01
2022-12-31T16:27:30.556Z,17.75
2022-12-31T16:30:02.131Z,17.84
2022-12-31T16:32:37.946Z,17.89
2022-12-31T16:35:36.384Z,17.52
2022-12-31T16:38:18.060Z,17.59
2022-12-31T16:41:19.172Z,17.40
2022-12-31T16:43:50.970Z,17.60
2022-12-31T16:46:31.445Z,17.62
2022-12-31T16:49:21.390Z,17.60
2022-12-31T16:51:52.252Z,17.56
2022-12-31T16:54:39.479Z,17.45
2022-12-31T16:57:10.839Z,17.39
2022-12-31T16:59:45.391Z,17.29
2022-12-31T17:02:27.399Z,17.17
2022-12-31T17:04:56.667Z,17.09
2022-12-31T17:07:30.338Z,17.03
2022-12-31T17:10:07.345Z,16.99
2022-12-31T17:13:25.485Z,16.87
2022-12-31T17:15:48.341Z,16.74
2022-12-31T17:18:24.776Z,16.72
2022-12-31T17:20:54.623Z,16.65
2022-12-31T17:23:32.842Z,16.58
2022-12-31T17:26:25.110Z,16.51
2022-12-31T17:28:55.526Z,16.42
2022-12-31T17:31:38.192Z,16.33
2022-12-31T17:34:14.971Z,16.26
2022-12-31T17:37:18.105Z,16.22
2022-12-31T17:39:54.061Z,16.15
2022-12-31T17:42:33.745Z,16.05
2022-12-31T17:45:16.337Z,15.90
2022-12-31T17:47:48.900Z,15.90
2022-12-31T17:50:24.753Z,15.83
2022-12-31T17:53:10.619Z,15.78
2022-12-31T17:55:39.191Z,15.77
2022-12-31T17:58:08.121Z,15.70
2022-12-31T18:00:37.939Z,15.43
2022-12-31T18:03:05.812Z,15.40
2022-12-31T18:05:33.535Z,15.43
2022-12-31T18:08:01.131Z,15.32
2022-12-31T18:10:35.427Z,15.34
2022-12-31T18:13:06.231Z,15.30
2022-12-31T18:15:39.728Z,15.24
2022-12-31T18:18:28.160Z,15.16
2022-12-31T18:21:02.211Z,15.11
2022-12-31T18:23:46.056Z,15.00
2022-12-31T18:26:20.924Z,15.01
2022-12-31T18:28:49.447Z,14.97
2022-12-31T18:31:23.445Z,14.94
2022-12-31T18:33:56.925Z,14.84
2022-12-31T18:36:26.070Z,14.79
2022-12-31T18:39:19.365Z,14.74
2022-12-31T18:41:49.855Z,14.68
2022-12-31T18:44:18.261Z,14.61
2022-12-31T18:46:45.905Z,14.58
2022-12-31T18:49:13.590Z,14.49
2022-12-31T18:51:41.290Z,14.48
2022-12-31T18:54:14.136Z,14.42
2022-12-31T18:56:47.060Z,14.41
2022-12-31T18:59:16.064Z,14.38
2022-12-31T19:01:44.116Z,14.34
2022-12-31T19:04:26.689Z,14.19
2022-12-31T19:06:56.627Z,14.15
2022-12-31T19:09:44.527Z,14.01
2022-12-31T19:12:15.846Z,13.97
2022-12-31T19:14:45.386Z,13.79
2022-12-31T19:17:12.999Z,13.76
2022-12-31T19:19:40.719Z,13.79
2022-12-31T19:22:15.432Z,13.59
2022-12-31T19:24:43.026Z,13.68
2022-12-31T19:27:14.418Z,13.55
2022-12-31T19:29:42.003Z,13.30
2022-12-31T19:32:09.594Z,13.33
2022-12-31T19:34:37.329Z,13.42
2022-12-31T19:37:04.936Z,13.38
2022-12-31T19:39:32.523Z,13.25
2022-12-31T19:42:00.124Z,13.30
2022-12-31T19:44:30.701Z,13.26
2022-12-31T19:46:58.284Z,13.32
2022-12-31T19:49:25.915Z,13.29
2022-12-31T19:51:53.581Z,13.34
2022-12-31T19:54:21.281Z,13.25
2022-12-31T19:56:48.894Z,13.31
2022-12-31T19:59:16.498Z,13.13
2022-12-31T20:01:44.157Z,13.25
2022-12-31T20:04:11.979Z,13.36
2022-12-31T20:06:39.569Z,13.38
2022-12-31T20:09:07.103Z,13.19
2022-12-31T20:11:34.946Z,13.22
2022-12-31T20:14:02.566Z,13.33
2022-12-31T20:16:35.495Z,13.33
2022-12-31T20:19:03.844Z,13.34
2022-12-31T20:21:31.634Z,13.30
2022-12-31T20:23:59.386Z,12.90
2022-12-31T20:26:27.326Z,13.18
2022-12-31T20:28:55.063Z,13.35
2022-12-31T20:31:25.407Z,13.20
2022-12-31T20:33:54.318Z,13.32
2022-12-31T20:36:23.139Z,13.35
2022-12-31T20:38:51.383Z,13.35
2022-12-31T20:41:22.463Z,13.33
2022-12-31T20:43:50.799Z,13.37
2022-12-31T20:46:22.326Z,13.31
2022-12-31T20:48:52.687Z,13.27
2022-12-31T20:51:22.014Z,13.27
2022-12-31T20:53:57.312Z,13.13
2022-12-31T20:56:27.860Z,13.17
2022-12-31T20:58:56.144Z,13.23
2022-12-31T21:01:25.434Z,13.09
2022-12-31T21:04:04.940Z,12.78
2022-12-31T21:06:35.200Z,12.81
2022-12-31T21:09:06.631Z,12.96
2022-12-31T21:11:53.463Z,13.03
2022-12-31T21:14:21.599Z,13.05
2022-12-31T21:16:49.795Z,13.07
2022-12-31T21:19:17.619Z,12.96
2022-12-31T21:21:45.784Z,12.98
2022-12-31T21:24:16.396Z,12.96
2022-12-31T21:26:48.088Z,12.97
2022-12-31T21:29:15.834Z,12.95
2022-12-31T21:31:43.510Z,12.85
2022-12-31T21:34:11.323Z,12.74
2022-12-31T21:36:39.001Z,12.80
2022-12-31T21:39:08.282Z,12.76
2022-12-31T21:41:51.039Z,12.72
2022-12-31T21:44:26.212Z,12.55
2022-12-31T21:47:45.460Z,12.68
2022-12-31T21:50:10.245Z,12.35
2022-12-31T21:52:37.821Z,12.24
2022-12-31T21:55:25.647Z,12.43
2022-12-31T21:58:25.279Z,12.41
2022-12-31T22:00:59.611Z,12.52
2022-12-31T22:03:27.915Z,12.45
2022-12-31T22:06:01.173Z,12.37
2022-12-31T22:08:30.963Z,12.41
2022-12-31T22:10:59.061Z,12.37
2022-12-31T22:13:26.970Z,12.21
2022-12-31T22:16:04.228Z,12.15
2022-12-31T22:18:35.609Z,11.96
2022-12-31T22:21:20.552Z,11.97
2022-12-31T22:23:55.151Z,12.05
2022-12-31T22:26:27.306Z,12.07
2022-12-31T22:28:59.140Z,12.08
2022-12-31T22:31:30.298Z,12.02
2022-12-31T22:33:59.132Z,12.04
2022-12-31T22:36:26.894Z,11.96
2022-12-31T22:39:44.032Z,11.96
2022-12-31T22:42:11.569Z,11.97
2022-12-31T22:44:39.381Z,11.98
2022-12-31T22:47:07.123Z,11.95
2022-12-31T22:49:35.595Z,11.93
2022-12-31T22:52:08.535Z,11.87
2022-12-31T22:54:36.655Z,11.88
2022-12-31T22:57:05.012Z,11.88
2022-12-31T22:59:32.845Z,11.83
2022-12-31T23:02:00.607Z,11.77
2022-12-31T23:04:28.422Z,11.67
2022-12-31T23:06:56.265Z,11.71
2022-12-31T23:09:42.820Z,11.69
2022-12-31T23:12:11.143Z,11.71
2022-12-31T23:15:02.872Z,11.74
2022-12-31T23:17:49.729Z,11.77
2022-12-31T23:20:43.354Z,11.75
2022-12-31T23:23:16.656Z,11.63
2022-12-31T23:25:51.151Z,11.68
2022-12-31T23:28:25.245Z,11.49
2022-12-31T23:30:53.758Z,11.45
2022-12-31T23:33:24.854Z,11.20
2022-12-31T23:36:06.788Z,11.36
2022-12-31T23:38:34.559Z,11.38
2022-12-31T23:41:18.904Z,11.40
2022-12-31T23:43:48.569Z,11.44
2022-12-31T23:46:17.318Z,11.40
2022-12-31T23:48:45.112Z,11.40
2022-12-31T23:51:12.736Z,11.36
2022-12-31T23:53:40.450Z,11.24
2022-12-31T23:56:23.723Z,11.14
2022-12-31T23:58:59.542Z,11.05
